Time;durP1;ratioP1;P1;durP2;ratioP2;P2;SDS_P1;SDS_P2;PMS_P1;PMS_P2;Temp;Humidity;BMP_temperature;BMP_pressure;BME280_temperature;BME280_humidity;BME280_pressure;Samples;Min_cycle;Max_cycle;Signal;HPM_P1;HPM_P2
2022/01/24 00:01:53;;;;;;;;;;;;;;;;;;4060371;29;1279;-64
2022/01/24 00:04:13;;;;;;;;;;;;;;;;;;4060240;29;1002;-64
2022/01/24 00:06:34;;;;;;;;;;;;;;;;;;4059840;29;1665;-64
2022/01/24 00:08:54;;;;;;;;;;;;;;;;;;4051391;29;1634;-64
2022/01/24 00:11:18;;;;;;;;;;;;;;;;;;4059947;29;871;-64
2022/01/24 00:16:46;;;;;;;;;;;;;;;;;;4060068;29;968;-64
2022/01/24 00:27:02;;;;;;;;;;;;;;;;;;4045753;29;1008;-63
2022/01/24 00:29:22;;;;;;;;;;;;;;;;;;4037305;29;2165;-64
2022/01/24 00:31:43;;;;;;;;;;;;;;;;;;4035190;29;1528;-63
2022/01/24 00:34:03;;;;;;;;;;;;;;;;;;4059238;29;1366;-64
2022/01/24 00:36:24;;;;;;;;;;;;;;;;;;4059768;29;1208;-64
2022/01/24 00:38:44;;;;;;;;;;;;;;;;;;4059612;29;2008;-65
2022/01/24 00:41:05;;;;;;;;;;;;;;;;;;4059684;29;1078;-64
2022/01/24 00:43:31;;;;;;;;;;;;;;;;;;4059200;29;897;-64
2022/01/24 00:46:02;;;;;;;;;;;;;;;;;;4059508;29;829;-63
2022/01/24 00:48:51;;;;;;;;;;;;;;;;;;4059267;29;1003;-64
2022/01/24 00:54:42;;;;;;;;;;;;;;;;;;4059641;29;914;-64
2022/01/24 00:56:44;;;;;;;;;;;;;;;;;;4059584;29;1020;-64
2022/01/24 00:59:04;;;;;;;;;;;;;;;;;;4059170;29;1975;-63
2022/01/24 01:01:25;;;;;;;;;;;;;;;;;;4059433;29;1410;-64
2022/01/24 01:03:46;;;;;;;;;;;;;;;;;;4059567;29;833;-64
2022/01/24 01:06:07;;;;;;;;;;;;;;;;;;4059188;29;1310;-63
2022/01/24 01:19:12;;;;;;;;;;;;;;;;;;4010968;29;1907;-63
2022/01/24 01:21:32;;;;;;;;;;;;;;;;;;4049664;29;1125;-63
2022/01/24 01:23:55;;;;;;;;;;;;;;;;;;4058905;29;944;-63
2022/01/24 01:26:25;;;;;;;;;;;;;;;;;;4045049;29;1036;-63
2022/01/24 01:28:49;;;;;;;;;;;;;;;;;;4059106;29;949;-64
2022/01/24 01:31:18;;;;;;;;;;;;;;;;;;4058913;29;1192;-64
2022/01/24 01:33:50;;;;;;;;;;;;;;;;;;4059135;29;1027;-63
2022/01/24 01:36:16;;;;;;;;;;;;;;;;;;4058964;29;913;-63
2022/01/24 01:39:02;;;;;;;;;;;;;;;;;;4056391;29;1014;-63
2022/01/24 01:54:55;;;;;;;;;;;;;;;;;;4052761;29;923;-64
2022/01/24 01:57:16;;;;;;;;;;;;;;;;;;4059930;29;1044;-63
2022/01/24 01:59:36;;;;;;;;;;;;;;;;;;4057161;29;1981;-64
2022/01/24 02:01:56;;;;;;;;;;;;;;;;;;4059323;29;1397;-64
2022/01/24 02:04:19;;;;;;;;;;;;;;;;;;4059154;29;1344;-64
2022/01/24 02:06:40;;;;;;;;;;;;;;;;;;4059039;29;1070;-64
2022/01/24 02:09:00;;;;;;;;;;;;;;;;;;4059355;29;2152;-65
2022/01/24 02:11:21;;;;;;;;;;;;;;;;;;4059019;29;1008;-64
2022/01/24 02:13:41;;;;;;;;;;;;;;;;;;4058819;29;1106;-64
2022/01/24 02:16:10;;;;;;;;;;;;;;;;;;4058786;29;1025;-64
2022/01/24 02:18:36;;;;;;;;;;;;;;;;;;4058977;29;938;-64
2022/01/24 02:21:25;;;;;;;;;;;;;;;;;;4058845;29;1906;-64
2022/01/24 02:23:47;;;;;;;;;;;;;;;;;;4058570;29;1055;-63
2022/01/24 02:26:10;;;;;;;;;;;;;;;;;;4044020;29;1186;-63
2022/01/24 02:28:42;;;;;;;;;;;;;;;;;;4057068;29;960;-64
2022/01/24 02:31:19;;;;;;;;;;;;;;;;;;4057926;29;1276;-63
2022/01/24 02:33:43;;;;;;;;;;;;;;;;;;4058198;29;929;-63
2022/01/24 02:36:04;;;;;;;;;;;;;;;;;;4056987;29;977;-65
2022/01/24 02:38:37;;;;;;;;;;;;;;;;;;4057319;29;908;-64
2022/01/24 02:48:47;;;;;;;;;;;;;;;;;;4043729;29;1051;-65
2022/01/24 02:53:46;;;;;;;;;;;;;;;;;;4044142;29;886;-62
2022/01/24 02:56:06;;;;;;;;;;;;;;;;;;4044130;29;1034;-62
2022/01/24 02:58:27;;;;;;;;;;;;;;;;;;4043897;29;1052;-63
2022/01/24 03:00:47;;;;;;;;;;;;;;;;;;4044118;29;1964;-63
2022/01/24 03:03:08;;;;;;;;;;;;;;;;;;4044285;29;879;-62
2022/01/24 03:05:28;;;;;;;;;;;;;;;;;;4043885;29;973;-63
2022/01/24 03:07:48;;;;;;;;;;;;;;;;;;4043982;29;1014;-63
2022/01/24 03:10:14;;;;;;;;;;;;;;;;;;4044823;29;834;-63
2022/01/24 03:12:41;;;;;;;;;;;;;;;;;;4046647;29;917;-62
2022/01/24 03:15:03;;;;;;;;;;;;;;;;;;4046806;29;1002;-63
2022/01/24 03:17:24;;;;;;;;;;;;;;;;;;4046600;29;1145;-63
2022/01/24 03:19:44;;;;;;;;;;;;;;;;;;4046367;29;1989;-62
2022/01/24 03:22:04;;;;;;;;;;;;;;;;;;4047213;29;1056;-64
2022/01/24 03:24:25;;;;;;;;;;;;;;;;;;4046939;29;934;-63
2022/01/24 03:26:45;;;;;;;;;;;;;;;;;;4046955;29;1063;-63
2022/01/24 03:29:06;;;;;;;;;;;;;;;;;;4046813;29;922;-64
2022/01/24 03:31:26;;;;;;;;;;;;;;;;;;4046841;29;947;-63
2022/01/24 03:33:47;;;;;;;;;;;;;;;;;;4046438;29;1162;-64
2022/01/24 03:36:07;;;;;;;;;;;;;;;;;;4046582;29;888;-64
2022/01/24 03:38:27;;;;;;;;;;;;;;;;;;4046914;29;1075;-64
2022/01/24 03:40:48;;;;;;;;;;;;;;;;;;4046775;29;1907;-63
2022/01/24 03:43:08;;;;;;;;;;;;;;;;;;4046390;29;988;-64
2022/01/24 03:45:39;;;;;;;;;;;;;;;;;;4046328;29;982;-64
2022/01/24 03:48:06;;;;;;;;;;;;;;;;;;4046520;29;884;-63
2022/01/24 03:50:26;;;;;;;;;;;;;;;;;;4046156;29;1127;-63
2022/01/24 03:52:46;;;;;;;;;;;;;;;;;;4046460;29;1138;-63
2022/01/24 03:55:07;;;;;;;;;;;;;;;;;;4046329;29;1027;-63
2022/01/24 03:57:27;;;;;;;;;;;;;;;;;;4046030;29;1169;-62
2022/01/24 03:59:48;;;;;;;;;;;;;;;;;;4046266;29;1907;-63
2022/01/24 04:02:08;;;;;;;;;;;;;;;;;;4046162;29;967;-64
2022/01/24 04:04:28;;;;;;;;;;;;;;;;;;4046167;29;874;-62
2022/01/24 04:06:49;;;;;;;;;;;;;;;;;;4045957;29;1309;-62
2022/01/24 04:09:10;;;;;;;;;;;;;;;;;;4046396;29;937;-63
2022/01/24 04:11:35;;;;;;;;;;;;;;;;;;4046029;29;1399;-62
2022/01/24 04:14:09;;;;;;;;;;;;;;;;;;4046048;29;1018;-62
2022/01/24 04:16:32;;;;;;;;;;;;;;;;;;4031814;29;976;-63
2022/01/24 04:18:58;;;;;;;;;;;;;;;;;;4046056;29;831;-63
2022/01/24 04:21:26;;;;;;;;;;;;;;;;;;4045793;29;1919;-62
2022/01/24 04:23:49;;;;;;;;;;;;;;;;;;4031651;29;927;-62
2022/01/24 04:26:09;;;;;;;;;;;;;;;;;;4045893;29;921;-63
2022/01/24 04:28:30;;;;;;;;;;;;;;;;;;4045566;29;1192;-65
2022/01/24 04:30:51;;;;;;;;;;;;;;;;;;4046258;29;875;-63
2022/01/24 04:33:11;;;;;;;;;;;;;;;;;;4045981;29;874;-63
2022/01/24 04:35:31;;;;;;;;;;;;;;;;;;4046009;29;986;-64
2022/01/24 04:37:53;;;;;;;;;;;;;;;;;;4046034;29;946;-63
2022/01/24 04:40:13;;;;;;;;;;;;;;;;;;4046021;29;1910;-64
2022/01/24 04:42:41;;;;;;;;;;;;;;;;;;4046058;29;838;-63
2022/01/24 04:45:23;;;;;;;;;;;;;;;;;;4031924;29;854;-64
2022/01/24 04:50:25;;;;;;;;;;;;;;;;;;4045885;29;838;-64
2022/01/24 04:50:44;;;;;;;;;;;;;;;;;;4031725;29;975;-64
2022/01/24 04:53:11;;;;;;;;;;;;;;;;;;4045900;29;1028;-63
2022/01/24 04:55:31;;;;;;;;;;;;;;;;;;4045861;29;848;-64
2022/01/24 04:57:52;;;;;;;;;;;;;;;;;;4045850;29;913;-63
2022/01/24 05:00:12;;;;;;;;;;;;;;;;;;4031742;29;1911;-63
2022/01/24 05:02:33;;;;;;;;;;;;;;;;;;4045723;29;985;-63
2022/01/24 05:04:53;;;;;;;;;;;;;;;;;;4045797;29;918;-64
2022/01/24 05:07:14;;;;;;;;;;;;;;;;;;4045640;29;1094;-64
2022/01/24 05:09:39;;;;;;;;;;;;;;;;;;4045745;29;1054;-63
2022/01/24 05:12:04;;;;;;;;;;;;;;;;;;4045999;29;940;-64
2022/01/24 05:24:57;;;;;;;;;;;;;;;;;;4045630;29;849;-63
2022/01/24 05:27:18;;;;;;;;;;;;;;;;;;4045437;29;1090;-63
2022/01/24 05:29:38;;;;;;;;;;;;;;;;;;4045424;29;1101;-64
2022/01/24 05:31:59;;;;;;;;;;;;;;;;;;4045864;29;944;-63
2022/01/24 05:34:20;;;;;;;;;;;;;;;;;;4045181;29;1054;-63
2022/01/24 05:36:40;;;;;;;;;;;;;;;;;;4045323;29;989;-64
2022/01/24 05:39:01;;;;;;;;;;;;;;;;;;4044915;29;968;-64
2022/01/24 05:41:22;;;;;;;;;;;;;;;;;;4044940;29;1914;-63
2022/01/24 05:43:42;;;;;;;;;;;;;;;;;;4045320;29;1000;-64
2022/01/24 05:46:02;;;;;;;;;;;;;;;;;;4045176;29;949;-63
2022/01/24 05:48:23;;;;;;;;;;;;;;;;;;4045429;29;842;-63
2022/01/24 05:50:43;;;;;;;;;;;;;;;;;;4045167;29;907;-63
2022/01/24 05:53:04;;;;;;;;;;;;;;;;;;4044828;29;1193;-63
2022/01/24 05:55:24;;;;;;;;;;;;;;;;;;4028405;29;992;-63
2022/01/24 05:57:44;;;;;;;;;;;;;;;;;;4045093;29;1105;-64
2022/01/24 06:00:05;;;;;;;;;;;;;;;;;;4045127;29;1182;-64
2022/01/24 06:02:32;;;;;;;;;;;;;;;;;;4045061;29;1004;-64
2022/01/24 06:04:53;;;;;;;;;;;;;;;;;;4045050;29;1012;-64
2022/01/24 06:07:13;;;;;;;;;;;;;;;;;;4047868;29;1380;-63
2022/01/24 06:09:33;;;;;;;;;;;;;;;;;;4060433;29;1029;-62
2022/01/24 06:11:53;;;;;;;;;;;;;;;;;;4059691;29;941;-63
2022/01/24 06:14:14;;;;;;;;;;;;;;;;;;4059383;29;1339;-65
2022/01/24 06:16:34;;;;;;;;;;;;;;;;;;4059394;29;1432;-65
2022/01/24 06:18:54;;;;;;;;;;;;;;;;;;4059850;29;1105;-64
2022/01/24 06:21:15;;;;;;;;;;;;;;;;;;4059879;29;1910;-64
2022/01/24 06:23:35;;;;;;;;;;;;;;;;;;4060451;29;998;-64
2022/01/24 06:25:55;;;;;;;;;;;;;;;;;;4059937;29;1014;-65
2022/01/24 06:28:16;;;;;;;;;;;;;;;;;;4059276;29;1166;-64
2022/01/24 06:30:36;;;;;;;;;;;;;;;;;;4058342;29;2270;-63
2022/01/24 06:32:56;;;;;;;;;;;;;;;;;;4058395;29;1507;-63
2022/01/24 06:35:17;;;;;;;;;;;;;;;;;;4059569;29;1489;-63
2022/01/24 06:37:37;;;;;;;;;;;;;;;;;;4058135;29;1815;-62
2022/01/24 06:39:57;;;;;;;;;;;;;;;;;;4058555;29;1393;-63
2022/01/24 06:42:23;;;;;;;;;;;;;;;;;;4058420;29;1907;-64
2022/01/24 06:44:45;;;;;;;;;;;;;;;;;;4057958;29;1747;-63
2022/01/24 06:47:05;;;;;;;;;;;;;;;;;;4056995;29;1576;-63
2022/01/24 06:49:26;;;;;;;;;;;;;;;;;;4059824;29;1187;-63
2022/01/24 06:51:47;;;;;;;;;;;;;;;;;;4059684;29;1003;-63
2022/01/24 06:54:07;;;;;;;;;;;;;;;;;;4059778;29;874;-63
2022/01/24 06:56:27;;;;;;;;;;;;;;;;;;4059642;29;992;-63
2022/01/24 06:58:48;;;;;;;;;;;;;;;;;;4059689;29;902;-63
2022/01/24 07:01:08;;;;;;;;;;;;;;;;;;4059615;29;1977;-63
2022/01/24 07:03:29;;;;;;;;;;;;;;;;;;4059630;29;1181;-63
2022/01/24 07:05:49;;;;;;;;;;;;;;;;;;4059370;29;1609;-63
2022/01/24 07:08:09;;;;;;;;;;;;;;;;;;4059583;29;1046;-63
2022/01/24 07:10:29;;;;;;;;;;;;;;;;;;4059054;29;1923;-63
2022/01/24 07:12:51;;;;;;;;;;;;;;;;;;4056677;29;1380;-63
2022/01/24 07:15:14;;;;;;;;;;;;;;;;;;4056795;29;1575;-63
2022/01/24 07:17:57;;;;;;;;;;;;;;;;;;4057354;29;1215;-63
2022/01/24 07:20:16;;;;;;;;;;;;;;;;;;4042572;29;1951;-63
2022/01/24 07:22:37;;;;;;;;;;;;;;;;;;4057410;29;1966;-63
2022/01/24 07:24:58;;;;;;;;;;;;;;;;;;4059108;29;1207;-63
2022/01/24 07:27:21;;;;;;;;;;;;;;;;;;4059495;29;874;-63
2022/01/24 07:29:41;;;;;;;;;;;;;;;;;;4060451;29;835;-63
2022/01/24 07:32:02;;;;;;;;;;;;;;;;;;4059261;29;940;-65
2022/01/24 07:34:23;;;;;;;;;;;;;;;;;;4045056;29;846;-65
2022/01/24 07:36:43;;;;;;;;;;;;;;;;;;4059618;29;1868;-65
2022/01/24 07:39:04;;;;;;;;;;;;;;;;;;4059334;29;921;-66
2022/01/24 07:41:27;;;;;;;;;;;;;;;;;;4058619;29;1981;-65
2022/01/24 07:43:47;;;;;;;;;;;;;;;;;;4059230;29;928;-64
2022/01/24 07:46:08;;;;;;;;;;;;;;;;;;4058713;29;1061;-65
2022/01/24 07:48:28;;;;;;;;;;;;;;;;;;4059133;29;991;-65
2022/01/24 07:50:51;;;;;;;;;;;;;;;;;;4028982;29;880;-65
2022/01/24 07:53:12;;;;;;;;;;;;;;;;;;4059192;29;1007;-65
2022/01/24 07:55:33;;;;;;;;;;;;;;;;;;4059259;29;838;-66
2022/01/24 07:57:54;;;;;;;;;;;;;;;;;;4060613;29;1003;-63
2022/01/24 08:00:14;;;;;;;;;;;;;;;;;;4061736;29;933;-63
2022/01/24 08:02:35;;;;;;;;;;;;;;;;;;4061864;29;1989;-63
2022/01/24 08:04:55;;;;;;;;;;;;;;;;;;4062312;29;1211;-64
2022/01/24 08:07:16;;;;;;;;;;;;;;;;;;4047536;29;1096;-63
2022/01/24 08:09:36;;;;;;;;;;;;;;;;;;4061514;29;1154;-64
2022/01/24 08:11:57;;;;;;;;;;;;;;;;;;4044555;29;975;-63
2022/01/24 08:14:17;;;;;;;;;;;;;;;;;;4047386;29;1016;-63
2022/01/24 08:16:39;;;;;;;;;;;;;;;;;;4046758;29;1184;-63
2022/01/24 08:18:59;;;;;;;;;;;;;;;;;;4061615;29;984;-63
2022/01/24 08:21:20;;;;;;;;;;;;;;;;;;4061592;29;1981;-63
2022/01/24 08:23:40;;;;;;;;;;;;;;;;;;4061537;29;843;-63
2022/01/24 08:26:02;;;;;;;;;;;;;;;;;;4047170;29;1005;-63
2022/01/24 08:28:22;;;;;;;;;;;;;;;;;;4061438;29;924;-63
2022/01/24 08:30:43;;;;;;;;;;;;;;;;;;4061407;29;1011;-63
2022/01/24 08:33:05;;;;;;;;;;;;;;;;;;4060777;29;966;-64
2022/01/24 08:35:25;;;;;;;;;;;;;;;;;;4061508;29;1001;-64
2022/01/24 08:37:46;;;;;;;;;;;;;;;;;;4061735;29;991;-63
2022/01/24 08:40:07;;;;;;;;;;;;;;;;;;4061654;29;1260;-64
2022/01/24 08:42:33;;;;;;;;;;;;;;;;;;4047340;29;1982;-64
2022/01/24 08:47:32;;;;;;;;;;;;;;;;;;4031438;29;991;-64
2022/01/24 08:49:53;;;;;;;;;;;;;;;;;;4061971;29;960;-63
2022/01/24 08:52:13;;;;;;;;;;;;;;;;;;4061240;29;850;-63
2022/01/24 08:54:34;;;;;;;;;;;;;;;;;;4060999;29;1034;-64
2022/01/24 08:56:54;;;;;;;;;;;;;;;;;;4060619;29;976;-60
2022/01/24 08:59:15;;;;;;;;;;;;;;;;;;4047315;29;1012;-60
2022/01/24 09:01:35;;;;;;;;;;;;;;;;;;4044188;29;1987;-60
2022/01/24 09:03:56;;;;;;;;;;;;;;;;;;4030661;29;1270;-60
2022/01/24 09:06:18;;;;;;;;;;;;;;;;;;4060815;29;1291;-60
2022/01/24 09:08:39;;;;;;;;;;;;;;;;;;4059941;29;1027;-60
2022/01/24 09:10:59;;;;;;;;;;;;;;;;;;4046741;29;1018;-60
2022/01/24 09:13:21;;;;;;;;;;;;;;;;;;4060755;29;1043;-60
2022/01/24 09:15:41;;;;;;;;;;;;;;;;;;4046736;29;855;-60
2022/01/24 09:18:02;;;;;;;;;;;;;;;;;;4046573;29;934;-60
2022/01/24 09:20:23;;;;;;;;;;;;;;;;;;4060600;29;927;-60
2022/01/24 09:22:43;;;;;;;;;;;;;;;;;;4060652;29;1986;-60
2022/01/24 09:25:03;;;;;;;;;;;;;;;;;;4060675;29;945;-60
2022/01/24 09:27:24;;;;;;;;;;;;;;;;;;4060697;29;939;-60
2022/01/24 09:29:44;;;;;;;;;;;;;;;;;;4046519;29;1152;-59
2022/01/24 09:32:04;;;;;;;;;;;;;;;;;;4060097;29;1160;-59
2022/01/24 09:34:25;;;;;;;;;;;;;;;;;;4060605;29;969;-59
2022/01/24 09:36:45;;;;;;;;;;;;;;;;;;4030386;29;1015;-59
2022/01/24 09:39:06;;;;;;;;;;;;;;;;;;4060545;29;862;-59
2022/01/24 09:41:26;;;;;;;;;;;;;;;;;;4060529;29;1033;-59
2022/01/24 09:43:47;;;;;;;;;;;;;;;;;;4060410;29;1056;-59
2022/01/24 09:46:08;;;;;;;;;;;;;;;;;;4061023;29;1125;-59
2022/01/24 09:48:28;;;;;;;;;;;;;;;;;;4046192;29;991;-59
2022/01/24 09:50:50;;;;;;;;;;;;;;;;;;4046217;29;868;-59
2022/01/24 09:53:11;;;;;;;;;;;;;;;;;;4046216;29;851;-59
2022/01/24 09:55:31;;;;;;;;;;;;;;;;;;4046082;29;986;-60
2022/01/24 09:57:52;;;;;;;;;;;;;;;;;;4045988;29;1001;-59
2022/01/24 10:00:12;;;;;;;;;;;;;;;;;;4045997;29;1126;-60
2022/01/24 10:02:33;;;;;;;;;;;;;;;;;;4060139;29;1934;-59
2022/01/24 10:04:54;;;;;;;;;;;;;;;;;;4060093;29;840;-60
2022/01/24 10:07:15;;;;;;;;;;;;;;;;;;4060015;29;1054;-60
2022/01/24 10:09:35;;;;;;;;;;;;;;;;;;4060045;29;1208;-59
2022/01/24 10:11:56;;;;;;;;;;;;;;;;;;4029880;29;972;-59
2022/01/24 10:16:55;;;;;;;;;;;;;;;;;;4043704;29;1065;-60
2022/01/24 10:19:16;;;;;;;;;;;;;;;;;;4060172;29;1014;-59
2022/01/24 10:21:36;;;;;;;;;;;;;;;;;;4045264;29;1084;-59
2022/01/24 10:23:57;;;;;;;;;;;;;;;;;;4059945;29;1915;-59
2022/01/24 10:26:18;;;;;;;;;;;;;;;;;;4060110;29;1018;-59
2022/01/24 10:28:39;;;;;;;;;;;;;;;;;;4060039;29;1004;-59
2022/01/24 10:30:59;;;;;;;;;;;;;;;;;;4045987;29;876;-60
2022/01/24 10:33:20;;;;;;;;;;;;;;;;;;4045713;29;1040;-59
2022/01/24 10:35:44;;;;;;;;;;;;;;;;;;4039865;29;2150;-59
2022/01/24 10:38:04;;;;;;;;;;;;;;;;;;4058237;29;1398;-60
2022/01/24 10:40:25;;;;;;;;;;;;;;;;;;4058236;29;936;-59
2022/01/24 10:42:55;;;;;;;;;;;;;;;;;;4043729;29;1985;-60
2022/01/24 10:45:16;;;;;;;;;;;;;;;;;;4058256;29;1053;-60
2022/01/24 10:47:43;;;;;;;;;;;;;;;;;;4058653;29;1118;-60
2022/01/24 10:50:04;;;;;;;;;;;;;;;;;;4058136;29;802;-60
2022/01/24 10:52:24;;;;;;;;;;;;;;;;;;4058636;29;830;-59
2022/01/24 10:54:45;;;;;;;;;;;;;;;;;;4056698;29;1592;-59
2022/01/24 10:57:05;;;;;;;;;;;;;;;;;;4058451;29;1018;-59
2022/01/24 10:59:25;;;;;;;;;;;;;;;;;;4058285;29;944;-59
2022/01/24 11:01:46;;;;;;;;;;;;;;;;;;4058130;29;935;-59
2022/01/24 11:04:07;;;;;;;;;;;;;;;;;;4058197;29;1994;-61
2022/01/24 11:06:27;;;;;;;;;;;;;;;;;;4058089;29;1047;-61
2022/01/24 11:08:49;;;;;;;;;;;;;;;;;;4058172;29;908;-62
2022/01/24 11:11:11;;;;;;;;;;;;;;;;;;4058340;29;1031;-63
2022/01/24 11:13:32;;;;;;;;;;;;;;;;;;4058244;29;899;-64
2022/01/24 11:15:57;;;;;;;;;;;;;;;;;;4058180;29;934;-62
2022/01/24 11:18:18;;;;;;;;;;;;;;;;;;4058036;29;1005;-62
2022/01/24 11:20:44;;;;;;;;;;;;;;;;;;4058038;29;1000;-62
2022/01/24 11:23:05;;;;;;;;;;;;;;;;;;4057987;29;1989;-62
2022/01/24 11:25:25;;;;;;;;;;;;;;;;;;4058109;29;954;-62
2022/01/24 11:27:47;;;;;;;;;;;;;;;;;;4058256;29;995;-60
2022/01/24 11:30:07;;;;;;;;;;;;;;;;;;4057648;29;1682;-61
2022/01/24 11:32:29;;;;;;;;;;;;;;;;;;4059683;29;1044;-62
2022/01/24 11:34:49;;;;;;;;;;;;;;;;;;4060395;29;942;-62
2022/01/24 11:37:10;;;;;;;;;;;;;;;;;;4060595;29;869;-61
2022/01/24 11:39:30;;;;;;;;;;;;;;;;;;4046420;29;1185;-62
2022/01/24 11:41:51;;;;;;;;;;;;;;;;;;4060670;29;992;-61
2022/01/24 11:44:15;;;;;;;;;;;;;;;;;;4060514;29;1911;-60
2022/01/24 11:46:37;;;;;;;;;;;;;;;;;;4060403;29;865;-61
2022/01/24 11:48:58;;;;;;;;;;;;;;;;;;4060516;29;987;-59
2022/01/24 11:51:18;;;;;;;;;;;;;;;;;;4060067;29;989;-60
2022/01/24 11:53:38;;;;;;;;;;;;;;;;;;4359171;23;3646;-63
2022/01/24 11:55:58;;;;;;;;;;;;;;;;;;4059849;29;1260;-64
2022/01/24 11:58:19;;;;;;;;;;;;;;;;;;4054811;29;991;-62
2022/01/24 12:00:40;;;;;;;;;;;;;;;;;;4059181;29;1316;-62
2022/01/24 12:03:01;;;;;;;;;;;;;;;;;;4059266;29;1989;-65
2022/01/24 12:05:21;;;;;;;;;;;;;;;;;;4059071;29;952;-62
2022/01/24 12:07:42;;;;;;;;;;;;;;;;;;4059752;29;997;-66
2022/01/24 12:10:02;;;;;;;;;;;;;;;;;;4059717;29;824;-65
2022/01/24 12:12:22;;;;;;;;;;;;;;;;;;4059000;29;965;-63
2022/01/24 12:14:43;;;;;;;;;;;;;;;;;;4058931;29;997;-66
2022/01/24 12:17:04;;;;;;;;;;;;;;;;;;4059500;29;932;-66
2022/01/24 12:19:27;;;;;;;;;;;;;;;;;;4059474;29;852;-66
2022/01/24 12:21:48;;;;;;;;;;;;;;;;;;4058798;29;993;-65
2022/01/24 12:24:08;;;;;;;;;;;;;;;;;;4059005;29;1903;-65
2022/01/24 12:26:30;;;;;;;;;;;;;;;;;;4059312;29;1044;-63
2022/01/24 12:28:53;;;;;;;;;;;;;;;;;;4058850;29;891;-66
2022/01/24 12:31:13;;;;;;;;;;;;;;;;;;4058652;29;1666;-65
2022/01/24 12:33:34;;;;;;;;;;;;;;;;;;4059331;29;988;-68
2022/01/24 12:35:54;;;;;;;;;;;;;;;;;;4058225;29;904;-60
2022/01/24 12:38:15;;;;;;;;;;;;;;;;;;4059411;29;943;-61
2022/01/24 12:40:39;;;;;;;;;;;;;;;;;;4059454;29;1038;-60
2022/01/24 12:43:05;;;;;;;;;;;;;;;;;;4058098;29;1931;-60
2022/01/24 12:48:03;;;;;;;;;;;;;;;;;;4058979;29;841;-60
2022/01/24 12:50:23;;;;;;;;;;;;;;;;;;4058429;29;928;-61
2022/01/24 12:52:44;;;;;;;;;;;;;;;;;;4058351;29;1574;-62
2022/01/24 12:55:04;;;;;;;;;;;;;;;;;;4057482;29;1182;-64
2022/01/24 12:57:29;;;;;;;;;;;;;;;;;;4059467;29;824;-65
2022/01/24 12:59:50;;;;;;;;;;;;;;;;;;4059646;29;848;-66
2022/01/24 13:02:10;;;;;;;;;;;;;;;;;;4059215;29;1015;-65
2022/01/24 13:04:31;;;;;;;;;;;;;;;;;;4059991;29;1906;-65
2022/01/24 13:06:51;;;;;;;;;;;;;;;;;;4059679;29;919;-66
2022/01/24 13:09:12;;;;;;;;;;;;;;;;;;4059391;29;993;-65
2022/01/24 13:11:32;;;;;;;;;;;;;;;;;;4059558;29;838;-65
2022/01/24 13:13:52;;;;;;;;;;;;;;;;;;4045158;29;850;-66
2022/01/24 13:21:30;;;;;;;;;;;;;;;;;;4058161;29;1355;-65
2022/01/24 13:23:51;;;;;;;;;;;;;;;;;;4057553;29;1980;-65
2022/01/24 13:26:11;;;;;;;;;;;;;;;;;;4058303;29;1753;-66
2022/01/24 13:28:32;;;;;;;;;;;;;;;;;;4058321;29;1842;-66
2022/01/24 13:30:58;;;;;;;;;;;;;;;;;;4055770;29;1350;-65
2022/01/24 13:33:20;;;;;;;;;;;;;;;;;;4058713;29;992;-65
2022/01/24 13:35:41;;;;;;;;;;;;;;;;;;4059232;29;912;-65
2022/01/24 13:38:01;;;;;;;;;;;;;;;;;;4059292;29;974;-65
2022/01/24 13:40:21;;;;;;;;;;;;;;;;;;4058725;29;1361;-64
2022/01/24 13:42:42;;;;;;;;;;;;;;;;;;4059029;29;1051;-65
2022/01/24 13:45:02;;;;;;;;;;;;;;;;;;4058648;29;1923;-66
2022/01/24 13:47:23;;;;;;;;;;;;;;;;;;4056196;29;1520;-67
2022/01/24 13:49:43;;;;;;;;;;;;;;;;;;4059087;29;1049;-67
2022/01/24 13:52:07;;;;;;;;;;;;;;;;;;4058916;29;935;-67
2022/01/24 13:54:29;;;;;;;;;;;;;;;;;;4057290;29;1394;-67
2022/01/24 13:56:49;;;;;;;;;;;;;;;;;;4058797;29;954;-67
2022/01/24 13:59:09;;;;;;;;;;;;;;;;;;4044249;29;1663;-67
2022/01/24 14:01:30;;;;;;;;;;;;;;;;;;4044845;29;853;-67
2022/01/24 14:03:50;;;;;;;;;;;;;;;;;;4044549;29;1988;-67
2022/01/24 14:06:10;;;;;;;;;;;;;;;;;;4050991;29;1821;-67
2022/01/24 14:08:30;;;;;;;;;;;;;;;;;;4059952;29;1816;-67
2022/01/24 14:10:56;;;;;;;;;;;;;;;;;;4058523;29;1570;-67
2022/01/24 14:13:23;;;;;;;;;;;;;;;;;;4059367;29;1774;-67
2022/01/24 14:15:52;;;;;;;;;;;;;;;;;;4059755;29;933;-69
2022/01/24 14:18:28;;;;;;;;;;;;;;;;;;4059680;29;1321;-69
2022/01/24 14:20:48;;;;;;;;;;;;;;;;;;4060066;29;826;-69
2022/01/24 14:23:09;;;;;;;;;;;;;;;;;;4059720;29;984;-64
2022/01/24 14:25:31;;;;;;;;;;;;;;;;;;4059590;29;2065;-69
2022/01/24 14:27:52;;;;;;;;;;;;;;;;;;4045167;29;1791;-69
2022/01/24 14:30:13;;;;;;;;;;;;;;;;;;4057519;29;906;-69
2022/01/24 14:32:38;;;;;;;;;;;;;;;;;;4059257;29;1155;-67
2022/01/24 14:34:59;;;;;;;;;;;;;;;;;;4059512;29;1008;-67
2022/01/24 14:37:19;;;;;;;;;;;;;;;;;;4058785;29;970;-68
2022/01/24 14:39:41;;;;;;;;;;;;;;;;;;4059490;29;921;-64
2022/01/24 14:42:07;;;;;;;;;;;;;;;;;;4059432;29;913;-64
2022/01/24 14:47:21;;;;;;;;;;;;;;;;;;3972704;29;1956;-67
2022/01/24 14:49:42;;;;;;;;;;;;;;;;;;3970308;29;1375;-65
2022/01/24 14:52:04;;;;;;;;;;;;;;;;;;4005867;29;1554;-67
2022/01/24 14:54:25;;;;;;;;;;;;;;;;;;4056344;29;1530;-68
2022/01/24 14:56:45;;;;;;;;;;;;;;;;;;4063667;29;2110;-66
2022/01/24 14:59:06;;;;;;;;;;;;;;;;;;4054654;29;1945;-67
2022/01/24 15:01:27;;;;;;;;;;;;;;;;;;4054966;29;1671;-64
2022/01/24 15:03:49;;;;;;;;;;;;;;;;;;4056589;29;1951;-68
2022/01/24 15:06:10;;;;;;;;;;;;;;;;;;4058841;29;1322;-68
2022/01/24 15:08:30;;;;;;;;;;;;;;;;;;4058844;29;1461;-67
2022/01/24 15:10:51;;;;;;;;;;;;;;;;;;4061997;29;1938;-67
2022/01/24 15:13:12;;;;;;;;;;;;;;;;;;4063220;29;1568;-71
2022/01/24 15:15:35;;;;;;;;;;;;;;;;;;4067314;29;1991;-66
2022/01/24 15:25:50;;;;;;;;;;;;;;;;;;4043449;29;1985;-65
2022/01/24 15:28:12;;;;;;;;;;;;;;;;;;4045059;29;2067;-62
2022/01/24 15:30:33;;;;;;;;;;;;;;;;;;4051412;29;1754;-61
2022/01/24 15:32:54;;;;;;;;;;;;;;;;;;4054407;29;2309;-62
2022/01/24 15:35:16;;;;;;;;;;;;;;;;;;4058024;29;1160;-61
2022/01/24 15:37:38;;;;;;;;;;;;;;;;;;4058218;29;1094;-69
2022/01/24 15:39:58;;;;;;;;;;;;;;;;;;4028897;29;1020;-64
2022/01/24 15:42:35;;;;;;;;;;;;;;;;;;4043734;29;1142;-62
2022/01/24 15:45:25;;;;;;;;;;;;;;;;;;4028236;29;1931;-65
2022/01/24 15:47:47;;;;;;;;;;;;;;;;;;4054169;29;998;-65
2022/01/24 15:50:08;;;;;;;;;;;;;;;;;;4059915;29;1152;-65
2022/01/24 15:52:29;;;;;;;;;;;;;;;;;;4060467;29;1146;-64
2022/01/24 15:54:52;;;;;;;;;;;;;;;;;;4060679;29;1155;-62
2022/01/24 15:59:51;;;;;;;;;;;;;;;;;;4060629;29;1118;-62
2022/01/24 16:02:11;;;;;;;;;;;;;;;;;;4060856;29;1125;-63
2022/01/24 16:04:32;;;;;;;;;;;;;;;;;;4060223;29;1907;-63
2022/01/24 16:06:52;;;;;;;;;;;;;;;;;;4061022;29;897;-63
2022/01/24 16:09:13;;;;;;;;;;;;;;;;;;4060107;29;1784;-63
2022/01/24 16:11:33;;;;;;;;;;;;;;;;;;4060578;29;1725;-63
2022/01/24 16:13:53;;;;;;;;;;;;;;;;;;4061228;29;863;-65
2022/01/24 16:16:15;;;;;;;;;;;;;;;;;;4061295;29;956;-63
2022/01/24 16:18:39;;;;;;;;;;;;;;;;;;4059800;29;1174;-62
2022/01/24 16:21:15;;;;;;;;;;;;;;;;;;4061298;29;829;-63
2022/01/24 16:23:46;;;;;;;;;;;;;;;;;;4045624;29;1046;-63
2022/01/24 16:26:06;;;;;;;;;;;;;;;;;;4044915;29;1911;-63
2022/01/24 16:28:26;;;;;;;;;;;;;;;;;;4060323;29;1755;-63
2022/01/24 16:30:47;;;;;;;;;;;;;;;;;;4060978;29;890;-63
2022/01/24 16:33:08;;;;;;;;;;;;;;;;;;4058733;29;1387;-64
2022/01/24 16:35:29;;;;;;;;;;;;;;;;;;4059892;29;1199;-64
2022/01/24 16:37:49;;;;;;;;;;;;;;;;;;4045069;29;980;-64
2022/01/24 16:40:12;;;;;;;;;;;;;;;;;;4044259;29;1031;-61
2022/01/24 16:42:38;;;;;;;;;;;;;;;;;;4044706;29;1273;-69
2022/01/24 16:45:13;;;;;;;;;;;;;;;;;;4030313;29;1983;-68
2022/01/24 16:47:33;;;;;;;;;;;;;;;;;;4055417;29;1178;-69
2022/01/24 16:49:54;;;;;;;;;;;;;;;;;;4059926;29;2017;-70
2022/01/24 16:52:14;;;;;;;;;;;;;;;;;;4060549;29;933;-68
2022/01/24 16:54:34;;;;;;;;;;;;;;;;;;4059377;29;1944;-69
2022/01/24 16:56:54;;;;;;;;;;;;;;;;;;4060452;29;1110;-67
2022/01/24 16:59:14;;;;;;;;;;;;;;;;;;4058998;29;2020;-69
2022/01/24 17:01:36;;;;;;;;;;;;;;;;;;4051944;29;1719;-69
2022/01/24 17:03:57;;;;;;;;;;;;;;;;;;4055214;29;2172;-68
2022/01/24 17:06:17;;;;;;;;;;;;;;;;;;4058479;29;2329;-67
2022/01/24 17:08:38;;;;;;;;;;;;;;;;;;4058279;29;2605;-66
2022/01/24 17:10:59;;;;;;;;;;;;;;;;;;4057057;29;2466;-65
2022/01/24 17:13:20;;;;;;;;;;;;;;;;;;4058476;29;2309;-65
2022/01/24 17:15:46;;;;;;;;;;;;;;;;;;4059820;29;1723;-65
2022/01/24 17:18:06;;;;;;;;;;;;;;;;;;4059527;29;1935;-69
2022/01/24 17:20:27;;;;;;;;;;;;;;;;;;4059294;29;2392;-69
2022/01/24 17:22:47;;;;;;;;;;;;;;;;;;4054296;29;1541;-69
2022/01/24 17:25:07;;;;;;;;;;;;;;;;;;4060391;29;1911;-68
2022/01/24 17:27:27;;;;;;;;;;;;;;;;;;4059681;29;1583;-69
2022/01/24 17:29:48;;;;;;;;;;;;;;;;;;4045263;29;993;-69
2022/01/24 17:32:08;;;;;;;;;;;;;;;;;;4058340;29;2016;-68
2022/01/24 17:34:29;;;;;;;;;;;;;;;;;;4044887;29;994;-69
2022/01/24 17:36:49;;;;;;;;;;;;;;;;;;4044292;29;1100;-69
2022/01/24 17:39:10;;;;;;;;;;;;;;;;;;4044685;29;1060;-69
2022/01/24 17:41:30;;;;;;;;;;;;;;;;;;4051257;29;1093;-69
2022/01/24 17:43:51;;;;;;;;;;;;;;;;;;4059774;29;1023;-69
2022/01/24 17:46:11;;;;;;;;;;;;;;;;;;4059909;29;1978;-69
2022/01/24 17:48:32;;;;;;;;;;;;;;;;;;4059827;29;1642;-70
2022/01/24 17:50:52;;;;;;;;;;;;;;;;;;4044003;29;1048;-69
2022/01/24 17:53:12;;;;;;;;;;;;;;;;;;4043944;29;1080;-69
2022/01/24 17:55:33;;;;;;;;;;;;;;;;;;4044447;29;916;-69
2022/01/24 17:59:20;;;;;;;;;;;;;;;;;;4235803;27;1337;-69
2022/01/24 18:01:41;;;;;;;;;;;;;;;;;;4234384;28;1817;-69